Time;durP1;ratioP1;P1;durP2;ratioP2;P2;SDS_P1;SDS_P2;PMS_P1;PMS_P2;Temp;Humidity;BMP_temperature;BMP_pressure;BME280_temperature;BME280_humidity;BME280_pressure;Samples;Min_cycle;Max_cycle;Signal;HPM_P1;HPM_P2
2021/06/15 00:01:29;;;;;;;6.03;3.87;;;21.40;99.90;;;;;;5038061;28;20535;-80
2021/06/15 00:03:55;;;;;;;4.10;3.70;;;21.40;99.90;;;;;;5037337;28;20228;-80
2021/06/15 00:06:20;;;;;;;3.90;3.50;;;21.30;99.90;;;;;;5036905;28;20235;-82
2021/06/15 00:08:46;;;;;;;5.00;3.63;;;21.30;99.90;;;;;;5037906;28;20191;-80
2021/06/15 00:11:12;;;;;;;6.07;3.93;;;21.30;99.90;;;;;;5037290;28;20264;-81
2021/06/15 00:13:37;;;;;;;3.93;3.33;;;21.20;99.90;;;;;;5036719;28;20234;-80
2021/06/15 00:16:03;;;;;;;6.43;4.00;;;21.20;99.90;;;;;;5036553;28;20200;-80
2021/06/15 00:18:29;;;;;;;4.40;3.70;;;21.20;99.90;;;;;;5035539;28;20192;-80
2021/06/15 00:20:54;;;;;;;4.10;3.43;;;21.20;99.90;;;;;;5019722;28;20203;-81
2021/06/15 00:23:20;;;;;;;4.67;4.27;;;21.20;99.90;;;;;;5036854;28;20217;-80
2021/06/15 00:25:47;;;;;;;4.47;4.00;;;21.10;99.90;;;;;;5036433;28;20181;-80
2021/06/15 00:28:12;;;;;;;4.40;4.00;;;21.10;99.90;;;;;;5038877;28;20415;-80
2021/06/15 00:30:38;;;;;;;5.77;4.10;;;21.10;99.90;;;;;;5021793;28;20420;-80
2021/06/15 00:33:04;;;;;;;4.90;3.80;;;21.00;99.90;;;;;;5039384;28;20601;-80
2021/06/15 00:35:29;;;;;;;4.47;3.77;;;21.00;99.90;;;;;;5039248;28;20168;-79
2021/06/15 00:37:55;;;;;;;4.70;4.20;;;20.90;99.90;;;;;;5037875;28;20423;-81
2021/06/15 00:40:22;;;;;;;5.37;3.90;;;20.90;99.90;;;;;;5039530;28;20193;-81
2021/06/15 00:42:48;;;;;;;4.27;3.87;;;20.90;99.90;;;;;;5021780;28;20294;-80
2021/06/15 00:45:16;;;;;;;5.17;4.03;;;20.90;99.90;;;;;;5039018;28;20408;-81
2021/06/15 00:47:46;;;;;;;5.43;4.60;;;20.80;99.90;;;;;;5037061;28;20216;-81
2021/06/15 00:50:13;;;;;;;6.63;4.03;;;20.80;99.90;;;;;;5038511;28;20443;-81
2021/06/15 00:52:38;;;;;;;6.10;4.43;;;20.80;99.90;;;;;;5036151;28;20457;-80
2021/06/15 00:55:05;;;;;;;6.20;4.40;;;20.80;99.90;;;;;;5037751;28;20411;-81
2021/06/15 00:57:31;;;;;;;8.87;4.33;;;20.80;99.90;;;;;;5035698;28;20203;-81
2021/06/15 00:59:57;;;;;;;5.30;3.60;;;20.80;99.90;;;;;;5037552;28;20442;-80
2021/06/15 01:02:24;;;;;;;5.47;3.60;;;20.80;99.90;;;;;;5037184;28;20200;-81
2021/06/15 01:04:50;;;;;;;5.53;3.63;;;20.80;99.90;;;;;;5036588;28;20463;-80
2021/06/15 01:07:23;;;;;;;5.63;3.30;;;20.70;99.90;;;;;;5034943;28;20434;-80
2021/06/15 01:10:07;;;;;;;4.50;3.57;;;20.70;99.90;;;;;;5036225;28;20291;-80
2021/06/15 01:13:14;;;;;;;6.43;4.13;;;20.70;99.90;;;;;;5033812;28;20451;-80
2021/06/15 01:15:47;;;;;;;8.53;4.20;;;20.70;99.90;;;;;;5034308;28;20403;-80
2021/06/15 01:18:17;;;;;;;6.83;3.50;;;20.70;99.90;;;;;;5034632;28;20410;-80
2021/06/15 01:20:49;;;;;;;5.77;4.23;;;20.60;99.90;;;;;;5034097;28;20413;-80
2021/06/15 01:23:33;;;;;;;12.07;4.33;;;20.50;99.90;;;;;;5033221;28;20465;-80
2021/06/15 01:25:59;;;;;;;6.80;4.70;;;20.40;99.90;;;;;;5037993;28;20773;-80
2021/06/15 01:28:27;;;;;;;4.77;4.07;;;20.40;99.90;;;;;;5037236;28;20415;-80
2021/06/15 01:31:19;;;;;;;5.87;4.03;;;20.40;99.90;;;;;;5037071;28;20255;-80
2021/06/15 01:33:50;;;;;;;5.67;4.97;;;20.40;99.90;;;;;;5037611;28;20488;-80
2021/06/15 01:36:18;;;;;;;4.90;4.17;;;20.30;99.90;;;;;;5020501;28;20957;-80
2021/06/15 01:38:57;;;;;;;5.50;4.57;;;20.30;99.90;;;;;;5038456;28;20500;-81
2021/06/15 01:41:30;;;;;;;7.27;4.40;;;20.30;99.90;;;;;;5038284;28;20508;-81
2021/06/15 01:44:01;;;;;;;7.53;4.47;;;20.30;99.90;;;;;;5040060;28;20798;-80
2021/06/15 01:46:32;;;;;;;6.13;4.63;;;20.30;99.90;;;;;;5037962;28;20398;-80
2021/06/15 01:49:04;;;;;;;7.00;4.80;;;20.30;99.90;;;;;;5038091;28;20432;-81
2021/06/15 01:51:32;;;;;;;7.13;4.43;;;20.30;99.90;;;;;;5037328;28;20501;-81
2021/06/15 01:54:10;;;;;;;7.77;4.30;;;20.30;99.90;;;;;;5037206;28;20457;-80
2021/06/15 01:56:42;;;;;;;5.50;3.90;;;20.30;99.90;;;;;;5032982;28;20416;-80
2021/06/15 01:59:10;;;;;;;8.47;6.40;;;20.20;99.90;;;;;;5033407;28;20482;-81
2021/06/15 02:01:39;;;;;;;6.00;4.20;;;20.20;99.90;;;;;;5033279;28;20411;-81
2021/06/15 02:04:05;;;;;;;14.60;5.13;;;20.20;99.90;;;;;;5050034;28;20828;-80
2021/06/15 02:06:34;;;;;;;9.07;4.67;;;20.20;99.90;;;;;;5037807;28;20438;-80
2021/06/15 02:09:03;;;;;;;8.57;4.80;;;20.10;99.90;;;;;;5036051;28;20421;-80
2021/06/15 02:11:30;;;;;;;5.77;4.60;;;20.10;99.90;;;;;;5035918;28;20409;-80
2021/06/15 02:14:01;;;;;;;7.40;5.67;;;20.10;99.90;;;;;;5035833;28;20469;-81
2021/06/15 02:16:27;;;;;;;7.60;4.40;;;20.10;99.90;;;;;;5037555;28;20393;-81
2021/06/15 02:18:59;;;;;;;5.90;4.73;;;20.10;99.90;;;;;;5035193;28;20805;-80
2021/06/15 02:21:26;;;;;;;5.50;4.67;;;20.10;99.90;;;;;;5035448;28;20472;-81
2021/06/15 02:23:57;;;;;;;5.40;4.57;;;20.10;99.90;;;;;;5018568;28;20440;-81
2021/06/15 02:26:25;;;;;;;7.90;5.17;;;20.00;99.90;;;;;;5041058;28;20440;-81
2021/06/15 02:28:51;;;;;;;7.43;5.10;;;20.00;99.90;;;;;;5042506;28;20451;-81
2021/06/15 02:31:20;;;;;;;9.43;4.70;;;20.00;99.90;;;;;;5037816;28;20418;-82
2021/06/15 02:33:51;;;;;;;6.00;5.33;;;20.00;99.90;;;;;;5017252;28;20213;-81
2021/06/15 02:36:27;;;;;;;7.33;5.13;;;19.90;99.90;;;;;;5035729;28;20419;-81
2021/06/15 02:38:55;;;;;;;5.67;4.70;;;19.90;99.90;;;;;;5038345;28;20835;-81
2021/06/15 02:41:27;;;;;;;7.67;4.80;;;19.90;99.90;;;;;;5037065;28;20418;-81
2021/06/15 02:44:00;;;;;;;6.47;4.60;;;19.90;99.90;;;;;;5037902;28;20811;-80
2021/06/15 02:46:28;;;;;;;8.37;4.40;;;20.00;99.90;;;;;;5036956;28;20424;-80
2021/06/15 02:48:56;;;;;;;6.50;4.30;;;20.00;99.90;;;;;;5038384;28;20408;-81
2021/06/15 02:51:26;;;;;;;5.93;5.00;;;20.00;99.90;;;;;;5037298;28;20425;-80
2021/06/15 02:54:09;;;;;;;7.20;5.40;;;20.00;99.90;;;;;;5041132;28;20985;-81
2021/06/15 02:56:42;;;;;;;7.50;5.20;;;20.00;99.90;;;;;;5041149;28;20790;-80
2021/06/15 02:59:07;;;;;;;4.90;4.47;;;20.00;99.90;;;;;;5042356;28;20454;-80
2021/06/15 03:01:33;;;;;;;8.67;5.17;;;19.90;99.90;;;;;;5039210;28;20412;-80
2021/06/15 03:03:58;;;;;;;7.13;5.37;;;19.90;99.90;;;;;;5039117;28;20194;-80
2021/06/15 03:06:24;;;;;;;7.10;5.40;;;19.90;99.90;;;;;;5039690;28;20245;-81
2021/06/15 03:08:49;;;;;;;6.80;5.07;;;19.90;99.90;;;;;;5038996;28;20267;-79
2021/06/15 03:11:22;;;;;;;6.40;4.77;;;20.00;99.90;;;;;;5037833;28;20269;-81
2021/06/15 03:14:03;;;;;;;5.70;4.60;;;20.00;99.90;;;;;;5039349;28;20274;-81
2021/06/15 03:16:32;;;;;;;8.57;5.00;;;20.00;99.90;;;;;;5039866;28;20509;-82
2021/06/15 03:19:03;;;;;;;8.50;5.30;;;19.90;99.90;;;;;;5038666;28;20439;-80
2021/06/15 03:21:36;;;;;;;9.13;6.20;;;19.90;99.90;;;;;;5038775;28;20412;-81
2021/06/15 03:24:05;;;;;;;6.80;5.30;;;19.80;99.90;;;;;;5040936;28;20569;-81
2021/06/15 03:26:47;;;;;;;7.33;4.67;;;19.90;99.90;;;;;;5039511;28;20920;-81
2021/06/15 03:29:18;;;;;;;6.10;5.20;;;19.90;99.90;;;;;;5039117;28;20419;-80
2021/06/15 03:31:45;;;;;;;9.97;5.97;;;19.90;99.90;;;;;;5037682;28;20914;-81
2021/06/15 03:34:14;;;;;;;8.40;5.67;;;19.90;99.90;;;;;;5038889;28;20425;-82
2021/06/15 03:36:42;;;;;;;10.30;6.00;;;19.90;99.90;;;;;;5038784;28;20964;-81
2021/06/15 03:39:09;;;;;;;9.10;4.70;;;19.90;99.90;;;;;;5040578;28;20429;-81
2021/06/15 03:41:36;;;;;;;7.57;6.10;;;20.00;99.90;;;;;;5039137;28;20775;-80
2021/06/15 03:44:06;;;;;;;7.60;5.50;;;19.90;99.90;;;;;;5038563;28;20431;-80
2021/06/15 03:46:34;;;;;;;7.43;5.30;;;19.90;99.90;;;;;;5039514;28;20421;-81
2021/06/15 03:49:02;;;;;;;7.13;5.10;;;20.00;99.90;;;;;;5020917;28;20424;-81
2021/06/15 03:51:31;;;;;;;8.63;6.13;;;20.10;99.90;;;;;;5021655;28;20435;-81
2021/06/15 03:54:09;;;;;;;9.13;6.30;;;20.20;99.90;;;;;;5039461;28;20455;-81
2021/06/15 03:56:46;;;;;;;6.77;5.23;;;20.20;99.90;;;;;;5039601;28;20408;-81
2021/06/15 03:59:15;;;;;;;6.50;4.87;;;20.20;99.90;;;;;;5039487;28;20459;-81
2021/06/15 04:01:42;;;;;;;8.53;5.77;;;20.30;99.90;;;;;;5020983;28;20462;-80
2021/06/15 04:04:10;;;;;;;6.00;5.03;;;20.10;99.90;;;;;;5038462;28;20416;-80
2021/06/15 04:06:45;;;;;;;13.63;7.70;;;20.10;99.90;;;;;;5038325;28;20912;-80
2021/06/15 04:09:12;;;;;;;8.43;6.97;;;20.00;99.90;;;;;;5037840;28;20889;-81
2021/06/15 04:11:40;;;;;;;10.10;7.33;;;20.00;99.90;;;;;;5036982;28;20502;-80
2021/06/15 04:14:11;;;;;;;6.40;4.97;;;20.10;99.90;;;;;;5035311;28;20429;-81
2021/06/15 04:16:38;;;;;;;11.87;6.17;;;20.10;99.90;;;;;;5036054;28;20421;-80
2021/06/15 04:19:06;;;;;;;6.70;5.87;;;20.30;99.90;;;;;;5037607;28;20463;-81
2021/06/15 04:21:36;;;;;;;8.03;5.83;;;20.40;99.90;;;;;;5036706;28;20443;-79
2021/06/15 04:24:03;;;;;;;8.00;5.33;;;20.60;99.90;;;;;;5035325;28;20410;-79
2021/06/15 04:26:33;;;;;;;6.33;5.10;;;20.60;99.90;;;;;;5036184;28;20501;-80
2021/06/15 04:28:59;;;;;;;8.50;5.70;;;20.70;99.90;;;;;;5035649;28;20405;-80
2021/06/15 04:31:28;;;;;;;9.40;6.20;;;20.80;99.90;;;;;;5034601;28;21322;-79
2021/06/15 04:33:55;;;;;;;8.60;6.40;;;20.70;99.90;;;;;;5037656;28;20216;-79
2021/06/15 04:36:21;;;;;;;6.43;5.80;;;20.70;99.90;;;;;;5038974;28;20410;-80
2021/06/15 04:39:01;;;;;;;6.10;4.67;;;20.70;99.90;;;;;;5036404;28;20553;-79
2021/06/15 04:41:30;;;;;;;9.20;5.87;;;20.70;99.90;;;;;;5036327;28;20650;-80
2021/06/15 04:44:01;;;;;;;7.13;5.50;;;20.70;99.90;;;;;;5038385;28;20438;-81
2021/06/15 04:46:48;;;;;;;6.90;5.13;;;20.70;99.90;;;;;;5019066;28;20427;-79
2021/06/15 04:49:25;;;;;;;6.30;5.33;;;20.70;99.90;;;;;;5034657;28;20537;-79
2021/06/15 04:51:54;;;;;;;6.13;5.00;;;20.70;99.90;;;;;;5035306;28;20957;-80
2021/06/15 04:54:22;;;;;;;5.80;4.50;;;20.70;99.90;;;;;;5034142;28;20419;-80
2021/06/15 04:56:50;;;;;;;6.30;5.10;;;20.80;99.90;;;;;;5035273;28;20440;-80
2021/06/15 04:59:20;;;;;;;6.60;5.30;;;20.90;99.90;;;;;;5035109;28;20468;-79
2021/06/15 05:01:47;;;;;;;6.20;5.30;;;21.00;99.90;;;;;;5037205;28;20435;-79
2021/06/15 05:04:13;;;;;;;5.73;4.93;;;21.00;99.90;;;;;;5040324;28;20458;-79
2021/06/15 05:06:40;;;;;;;16.10;6.20;;;21.20;99.90;;;;;;5039856;28;20459;-80
2021/06/15 05:09:08;;;;;;;9.53;6.10;;;21.50;99.90;;;;;;5042408;28;20408;-79
2021/06/15 05:11:36;;;;;;;6.73;5.63;;;21.50;99.90;;;;;;5040308;28;20442;-80
2021/06/15 05:14:05;;;;;;;6.67;5.37;;;21.40;99.90;;;;;;5041473;28;20461;-80
2021/06/15 05:16:33;;;;;;;5.80;5.30;;;21.50;99.90;;;;;;5023453;28;20423;-79
2021/06/15 05:18:59;;;;;;;8.53;6.67;;;21.50;99.90;;;;;;5040862;28;21034;-79
2021/06/15 05:21:32;;;;;;;5.73;5.13;;;21.50;99.90;;;;;;5039447;28;20408;-79
2021/06/15 05:24:03;;;;;;;8.33;5.20;;;21.60;99.90;;;;;;5040924;28;20284;-79
2021/06/15 05:26:30;;;;;;;6.73;5.40;;;21.90;99.90;;;;;;5021223;28;20432;-79
2021/06/15 05:28:55;;;;;;;7.93;5.37;;;22.00;99.90;;;;;;5038422;28;20416;-80
2021/06/15 05:31:21;;;;;;;5.90;5.30;;;22.20;99.90;;;;;;5022686;28;21231;-79
2021/06/15 05:33:46;;;;;;;6.80;4.80;;;22.10;99.90;;;;;;5037969;28;20202;-80
2021/06/15 05:36:12;;;;;;;6.70;5.80;;;22.20;99.90;;;;;;5021963;28;20173;-79
2021/06/15 05:38:38;;;;;;;8.10;5.80;;;22.10;99.90;;;;;;5038113;28;20260;-79
2021/06/15 05:41:04;;;;;;;8.70;5.37;;;22.10;99.90;;;;;;5036201;28;20516;-81
2021/06/15 05:43:30;;;;;;;9.40;5.60;;;22.30;99.90;;;;;;5035662;28;20606;-81
2021/06/15 05:45:55;;;;;;;8.50;5.87;;;22.50;99.90;;;;;;5036791;28;20317;-81
2021/06/15 05:48:21;;;;;;;7.23;6.10;;;22.50;99.90;;;;;;5054450;28;20177;-80
2021/06/15 05:50:49;;;;;;;10.13;6.03;;;22.30;99.90;;;;;;5051216;28;20181;-80
2021/06/15 05:53:16;;;;;;;8.53;5.27;;;22.20;99.90;;;;;;5035664;28;20224;-79
2021/06/15 05:55:41;;;;;;;6.40;5.70;;;22.10;99.90;;;;;;5042122;28;20419;-79
2021/06/15 05:58:07;;;;;;;9.43;7.00;;;22.20;99.90;;;;;;5038862;28;20495;-80
2021/06/15 06:00:33;;;;;;;24.63;14.80;;;22.00;99.90;;;;;;5037373;28;20192;-80
2021/06/15 06:02:59;;;;;;;352.10;212.00;;;22.50;99.90;;;;;;5038053;28;20221;-80
2021/06/15 06:08:09;;;;;;;8.97;5.60;;;22.50;99.90;;;;;;5036985;28;20836;-79
2021/06/15 06:10:37;;;;;;;6.07;5.40;;;21.80;99.90;;;;;;5036961;28;20438;-79
2021/06/15 06:13:06;;;;;;;7.07;6.30;;;21.50;99.90;;;;;;5024547;28;20463;-80
2021/06/15 06:15:31;;;;;;;11.00;5.80;;;21.50;99.90;;;;;;5045159;28;20411;-79
2021/06/15 06:18:02;;;;;;;10.40;5.57;;;21.60;99.90;;;;;;5025811;28;20572;-80
2021/06/15 06:20:28;;;;;;;5.80;4.97;;;21.60;99.90;;;;;;5025827;28;20267;-81
2021/06/15 06:22:57;;;;;;;9.20;5.77;;;21.70;99.90;;;;;;5042083;28;20485;-80
2021/06/15 06:25:24;;;;;;;8.60;5.37;;;22.10;99.90;;;;;;5039494;28;20683;-80
2021/06/15 06:27:50;;;;;;;8.57;5.87;;;22.10;99.90;;;;;;5042643;28;20433;-79
2021/06/15 06:30:16;;;;;;;7.50;5.23;;;22.40;99.90;;;;;;5039480;28;20424;-80
2021/06/15 06:32:43;;;;;;;6.63;5.50;;;22.50;99.90;;;;;;5054013;28;20237;-80
2021/06/15 06:35:09;;;;;;;6.67;5.70;;;22.20;99.90;;;;;;5057087;28;20411;-78
2021/06/15 06:37:34;;;;;;;6.57;5.57;;;22.10;99.90;;;;;;5058158;28;20419;-79
2021/06/15 06:40:01;;;;;;;6.10;5.50;;;21.90;99.90;;;;;;5040081;28;20469;-78
2021/06/15 06:42:26;;;;;;;11.50;5.20;;;22.10;99.90;;;;;;5057159;28;20665;-79
2021/06/15 06:44:52;;;;;;;10.20;6.23;;;22.00;99.90;;;;;;5057681;28;20446;-78
2021/06/15 06:47:17;;;;;;;8.27;5.27;;;22.10;99.90;;;;;;5058546;28;20180;-79
2021/06/15 06:49:43;;;;;;;6.40;4.63;;;22.10;99.90;;;;;;5058178;28;20204;-77
2021/06/15 06:52:09;;;;;;;9.37;5.60;;;22.30;99.90;;;;;;5056909;28;20204;-79
2021/06/15 06:54:34;;;;;;;7.80;5.90;;;22.10;99.90;;;;;;5057869;28;20199;-79
2021/06/15 06:57:00;;;;;;;6.07;4.83;;;22.00;99.90;;;;;;5057073;28;20204;-78
2021/06/15 06:59:25;;;;;;;8.67;5.40;;;21.90;99.90;;;;;;5059044;28;20200;-79
2021/06/15 07:01:51;;;;;;;7.33;6.40;;;21.80;99.90;;;;;;5056688;28;20255;-78
2021/06/15 07:04:16;;;;;;;8.00;5.77;;;21.70;99.90;;;;;;5039056;28;20190;-78
2021/06/15 07:06:42;;;;;;;7.47;4.90;;;21.90;99.90;;;;;;5054252;28;20234;-78
2021/06/15 07:09:07;;;;;;;12.07;6.43;;;22.10;99.90;;;;;;5039866;28;20261;-79
2021/06/15 07:11:33;;;;;;;8.70;5.70;;;22.20;99.90;;;;;;5040416;28;20212;-78
2021/06/15 07:13:59;;;;;;;5.60;4.80;;;22.30;99.90;;;;;;5039908;28;20208;-78
2021/06/15 07:16:24;;;;;;;9.17;5.50;;;22.60;99.90;;;;;;5038701;28;20214;-79
2021/06/15 07:18:51;;;;;;;10.23;5.87;;;22.30;99.90;;;;;;5036935;28;20174;-79
2021/06/15 07:21:16;;;;;;;8.00;4.90;;;22.10;99.90;;;;;;5035013;28;20649;-78
2021/06/15 07:23:42;;;;;;;6.67;5.43;;;22.00;99.90;;;;;;5035729;28;20520;-78
2021/06/15 07:26:08;;;;;;;9.63;5.47;;;22.00;99.90;;;;;;5034435;28;20180;-78
2021/06/15 07:28:33;;;;;;;10.73;6.60;;;22.20;99.90;;;;;;5037423;28;20185;-78
2021/06/15 07:30:59;;;;;;;9.37;5.20;;;22.10;99.90;;;;;;5037740;28;20185;-79
2021/06/15 07:33:25;;;;;;;8.20;5.70;;;22.20;99.90;;;;;;5035718;28;20213;-79
2021/06/15 07:35:51;;;;;;;8.13;5.43;;;22.30;99.90;;;;;;5036329;28;20699;-79
2021/06/15 07:38:16;;;;;;;8.73;5.67;;;22.60;99.90;;;;;;5036869;28;20605;-79
2021/06/15 07:40:42;;;;;;;9.20;4.83;;;22.80;99.90;;;;;;5018915;28;20276;-79
2021/06/15 07:43:07;;;;;;;5.90;5.30;;;22.70;99.90;;;;;;5018641;28;20546;-79
2021/06/15 07:45:36;;;;;;;9.53;5.23;;;22.50;99.90;;;;;;5035803;28;20181;-79
2021/06/15 07:48:02;;;;;;;7.50;5.40;;;22.30;99.90;;;;;;5036340;28;20169;-78
2021/06/15 07:50:27;;;;;;;13.30;6.73;;;22.40;99.90;;;;;;5035527;28;20421;-78
2021/06/15 07:52:53;;;;;;;8.77;5.20;;;22.40;99.90;;;;;;5036844;28;20688;-79
2021/06/15 07:55:19;;;;;;;8.20;5.63;;;22.30;99.90;;;;;;5036794;28;20184;-77
2021/06/15 07:57:47;;;;;;;10.57;5.87;;;22.60;99.90;;;;;;5036957;28;20208;-77
2021/06/15 08:00:13;;;;;;;10.60;5.30;;;22.70;99.90;;;;;;5035040;28;20170;-79
2021/06/15 08:02:41;;;;;;;10.70;6.30;;;22.70;99.90;;;;;;5035875;28;20906;-78
2021/06/15 08:05:07;;;;;;;11.07;4.90;;;22.90;99.90;;;;;;5035754;28;20499;-78
2021/06/15 08:07:33;;;;;;;9.60;5.57;;;23.00;99.90;;;;;;5036224;28;20455;-79
2021/06/15 08:09:58;;;;;;;9.93;5.77;;;23.20;99.90;;;;;;5038028;28;20484;-79
2021/06/15 08:12:24;;;;;;;7.80;6.20;;;23.30;99.90;;;;;;5036817;28;20205;-79
2021/06/15 08:14:50;;;;;;;9.23;6.30;;;23.50;99.90;;;;;;5037740;28;20224;-80
2021/06/15 08:17:16;;;;;;;10.20;6.17;;;23.20;99.90;;;;;;5035861;28;20192;-80
2021/06/15 08:19:42;;;;;;;6.90;5.50;;;22.90;99.90;;;;;;5037185;28;20447;-78
2021/06/15 08:22:08;;;;;;;6.30;5.70;;;22.80;99.90;;;;;;5035915;28;20447;-79
2021/06/15 08:24:33;;;;;;;7.00;5.83;;;22.90;99.90;;;;;;5037515;28;20412;-79
2021/06/15 08:26:59;;;;;;;12.03;5.53;;;22.70;99.90;;;;;;5035297;28;20178;-78
2021/06/15 08:29:25;;;;;;;9.70;5.70;;;22.60;99.90;;;;;;5037597;28;20181;-78
2021/06/15 08:31:51;;;;;;;6.73;5.10;;;22.70;99.90;;;;;;5036965;28;20408;-77
2021/06/15 08:34:17;;;;;;;8.27;6.50;;;22.50;99.90;;;;;;5035180;28;20694;-79
2021/06/15 08:36:43;;;;;;;9.37;6.27;;;22.60;99.90;;;;;;5035941;28;20412;-77
2021/06/15 08:39:09;;;;;;;9.47;5.87;;;22.60;99.90;;;;;;5036116;28;20184;-79
2021/06/15 08:41:35;;;;;;;8.10;6.30;;;22.50;99.90;;;;;;5035840;28;20413;-79
2021/06/15 08:44:05;;;;;;;8.63;5.63;;;22.50;99.90;;;;;;5036590;28;20260;-77
2021/06/15 08:46:32;;;;;;;7.60;5.80;;;22.50;99.90;;;;;;5034512;28;20431;-78
2021/06/15 08:48:58;;;;;;;9.00;5.57;;;22.50;99.90;;;;;;5017569;28;20945;-78
2021/06/15 08:51:24;;;;;;;7.40;6.20;;;22.40;99.90;;;;;;5035508;28;20466;-79
2021/06/15 08:53:53;;;;;;;7.67;5.27;;;22.60;99.90;;;;;;5036365;28;20460;-78
2021/06/15 08:56:28;;;;;;;7.77;5.70;;;22.70;99.90;;;;;;5033720;28;20212;-78
2021/06/15 08:59:18;;;;;;;9.40;6.00;;;22.90;99.90;;;;;;5034212;28;20442;-78
2021/06/15 09:01:49;;;;;;;8.67;5.93;;;23.00;99.90;;;;;;5033886;28;20419;-78
2021/06/15 09:04:15;;;;;;;8.00;6.13;;;22.90;99.90;;;;;;5035273;28;20414;-79
2021/06/15 09:06:40;;;;;;;10.70;5.33;;;22.90;99.90;;;;;;5043831;28;20495;-78
2021/06/15 09:09:06;;;;;;;9.30;7.50;;;22.90;99.90;;;;;;5043574;28;20178;-78
2021/06/15 09:11:59;;;;;;;8.10;5.50;;;22.90;99.90;;;;;;5047417;28;20192;-78
2021/06/15 09:14:53;;;;;;;12.97;6.10;;;22.90;99.90;;;;;;5035318;28;20404;-81
2021/06/15 09:17:27;;;;;;;11.60;6.37;;;23.10;99.90;;;;;;5035294;28;20443;-77
2021/06/15 09:19:55;;;;;;;20.67;6.67;;;23.10;99.90;;;;;;5033331;28;20395;-78
2021/06/15 09:22:23;;;;;;;7.47;5.90;;;22.90;99.90;;;;;;5032582;28;20475;-78
2021/06/15 09:24:49;;;;;;;7.60;6.20;;;22.80;99.90;;;;;;5032911;28;20487;-78
2021/06/15 09:27:15;;;;;;;7.80;5.20;;;23.00;99.90;;;;;;5034301;28;20451;-78
2021/06/15 09:29:43;;;;;;;11.57;6.53;;;23.10;99.90;;;;;;5034739;28;20182;-78
2021/06/15 09:32:16;;;;;;;6.27;5.00;;;22.90;99.90;;;;;;5034295;28;20438;-78
2021/06/15 09:34:54;;;;;;;7.03;5.07;;;22.60;99.90;;;;;;5034866;28;20419;-79
2021/06/15 09:37:31;;;;;;;8.10;6.00;;;22.50;99.90;;;;;;5035152;28;20443;-78
2021/06/15 09:39:58;;;;;;;6.80;5.60;;;22.60;99.90;;;;;;5033340;28;20420;-79
2021/06/15 09:42:24;;;;;;;8.70;6.13;;;22.70;99.90;;;;;;5033877;28;20444;-78
2021/06/15 09:44:49;;;;;;;5.77;5.00;;;23.10;99.90;;;;;;5034540;28;20492;-79
2021/06/15 09:47:15;;;;;;;7.17;5.00;;;23.30;99.90;;;;;;5032350;28;21002;-78
2021/06/15 09:49:43;;;;;;;4.97;4.30;;;23.20;99.90;;;;;;5033003;28;20181;-78
2021/06/15 09:52:25;;;;;;;5.67;4.87;;;23.40;99.90;;;;;;5033691;28;20201;-79
2021/06/15 09:54:54;;;;;;;7.67;4.87;;;23.40;99.90;;;;;;5034008;28;20407;-79
2021/06/15 09:57:33;;;;;;;5.93;4.40;;;23.10;99.90;;;;;;5032400;28;20408;-79
2021/06/15 10:00:17;;;;;;;5.20;4.30;;;23.30;99.90;;;;;;5032588;28;20416;-78
2021/06/15 10:02:59;;;;;;;5.50;4.60;;;23.30;99.90;;;;;;5034640;28;20555;-78
2021/06/15 10:05:31;;;;;;;8.33;4.93;;;23.20;99.90;;;;;;5036138;28;20435;-79
2021/06/15 10:08:02;;;;;;;8.07;4.77;;;22.80;99.90;;;;;;5035091;28;20408;-79
2021/06/15 10:10:50;;;;;;;4.97;4.47;;;22.90;99.90;;;;;;5035329;28;20970;-79
2021/06/15 10:13:16;;;;;;;7.50;5.30;;;23.10;99.90;;;;;;5032886;28;21016;-80
2021/06/15 10:15:43;;;;;;;8.17;5.20;;;23.10;99.90;;;;;;5034570;28;20404;-80
2021/06/15 10:18:09;;;;;;;10.67;5.80;;;23.20;99.90;;;;;;5034448;28;20169;-78
2021/06/15 10:20:35;;;;;;;5.00;4.50;;;23.00;99.90;;;;;;5034941;28;20411;-78
2021/06/15 10:23:02;;;;;;;5.70;4.63;;;23.10;99.90;;;;;;5034189;28;20530;-78
2021/06/15 10:25:30;;;;;;;5.47;4.40;;;22.90;99.90;;;;;;5035114;28;20416;-78
2021/06/15 10:27:57;;;;;;;6.20;5.20;;;22.90;99.90;;;;;;5034432;28;20457;-79
2021/06/15 10:30:32;;;;;;;5.73;4.70;;;22.80;99.90;;;;;;5035395;28;20416;-79
2021/06/15 10:33:04;;;;;;;5.60;4.73;;;22.90;99.90;;;;;;5034131;28;20966;-80
2021/06/15 10:35:49;;;;;;;6.00;5.40;;;23.10;99.90;;;;;;5034500;28;20454;-79
2021/06/15 10:38:24;;;;;;;8.07;5.60;;;23.20;99.90;;;;;;5034443;28;20412;-79
2021/06/15 10:40:52;;;;;;;9.43;5.43;;;22.90;99.90;;;;;;5033769;28;20400;-78
2021/06/15 10:43:26;;;;;;;5.90;5.33;;;22.90;99.90;;;;;;5033912;28;20809;-78
2021/06/15 10:45:53;;;;;;;7.37;5.27;;;22.90;99.90;;;;;;5032833;28;20422;-78
2021/06/15 10:48:20;;;;;;;6.60;5.17;;;22.70;99.90;;;;;;5034195;28;20811;-79
2021/06/15 10:50:51;;;;;;;6.80;5.70;;;22.90;99.90;;;;;;5033597;28;20778;-79
2021/06/15 10:53:19;;;;;;;6.00;5.03;;;23.00;99.90;;;;;;5035309;28;20467;-78
2021/06/15 10:55:49;;;;;;;7.70;5.90;;;23.20;99.90;;;;;;5035386;28;20414;-79
2021/06/15 10:58:35;;;;;;;7.07;5.83;;;23.20;99.90;;;;;;5034860;28;20518;-77
2021/06/15 11:01:21;;;;;;;10.50;6.00;;;22.90;99.90;;;;;;5037322;28;20404;-80
2021/06/15 11:04:05;;;;;;;6.90;5.03;;;23.10;99.90;;;;;;5037153;28;20466;-79
2021/06/15 11:06:30;;;;;;;11.83;5.83;;;23.20;99.90;;;;;;5037636;28;20458;-77
2021/06/15 11:09:17;;;;;;;6.33;5.47;;;23.00;99.90;;;;;;5037837;28;20416;-78
2021/06/15 11:11:49;;;;;;;7.37;5.37;;;23.00;99.90;;;;;;5037712;28;20227;-79
2021/06/15 11:14:20;;;;;;;10.90;6.20;;;22.90;99.90;;;;;;5038430;28;20459;-78
2021/06/15 11:16:48;;;;;;;9.70;5.90;;;22.70;99.90;;;;;;5036439;28;20474;-79
2021/06/15 11:19:14;;;;;;;7.40;5.80;;;22.90;99.90;;;;;;5037894;28;20417;-79
2021/06/15 11:22:15;;;;;;;5.60;5.10;;;23.00;99.90;;;;;;5036331;28;20420;-78
2021/06/15 11:24:47;;;;;;;10.00;6.10;;;23.00;99.90;;;;;;5033473;28;20825;-79
2021/06/15 11:27:20;;;;;;;10.00;6.57;;;22.60;99.90;;;;;;5036514;28;20859;-78
2021/06/15 11:29:56;;;;;;;7.97;6.30;;;22.40;99.90;;;;;;5036487;28;20506;-78
2021/06/15 11:32:29;;;;;;;9.47;6.13;;;22.40;99.90;;;;;;5036324;28;20472;-78
2021/06/15 11:37:32;;;;;;;12.13;6.07;;;22.60;99.90;;;;;;5036561;28;20774;-79
2021/06/15 11:40:23;;;;;;;8.50;5.40;;;22.70;99.90;;;;;;5034803;28;20668;-78
2021/06/15 11:43:07;;;;;;;6.20;5.30;;;23.00;99.90;;;;;;5036314;28;20482;-79
2021/06/15 11:45:36;;;;;;;9.00;5.87;;;23.10;99.90;;;;;;5036424;28;20432;-78
2021/06/15 11:48:33;;;;;;;6.60;5.67;;;23.00;99.90;;;;;;5035694;28;20416;-77
2021/06/15 11:51:09;;;;;;;8.50;5.97;;;22.90;99.90;;;;;;5037346;28;20418;-79
2021/06/15 11:53:37;;;;;;;9.43;5.87;;;22.80;99.90;;;;;;5038123;28;20463;-79
2021/06/15 11:56:06;;;;;;;6.70;5.60;;;22.90;99.90;;;;;;5036379;28;20973;-79
2021/06/15 11:58:37;;;;;;;7.57;5.90;;;22.80;99.90;;;;;;5037590;28;20470;-79
2021/06/15 12:01:10;;;;;;;10.87;6.37;;;22.90;99.90;;;;;;5036948;28;20970;-78
2021/06/15 12:03:43;;;;;;;11.60;6.47;;;23.00;99.90;;;;;;5038057;28;20462;-78
2021/06/15 12:06:10;;;;;;;7.13;6.43;;;22.90;99.90;;;;;;5039431;28;20973;-78
2021/06/15 12:08:38;;;;;;;8.90;7.07;;;22.70;99.90;;;;;;5037753;28;20819;-79
2021/06/15 12:11:08;;;;;;;15.73;6.47;;;22.70;99.90;;;;;;5036287;28;20903;-79
2021/06/15 12:13:35;;;;;;;10.17;7.07;;;22.70;99.90;;;;;;5038086;28;20455;-79
2021/06/15 12:16:10;;;;;;;8.37;6.80;;;22.70;99.90;;;;;;5037417;28;20428;-80
2021/06/15 12:18:37;;;;;;;7.10;6.40;;;22.50;99.90;;;;;;5036747;28;20484;-79
2021/06/15 12:21:07;;;;;;;9.13;7.10;;;22.70;99.90;;;;;;5038069;28;20414;-77
2021/06/15 12:23:35;;;;;;;7.30;6.20;;;22.50;99.90;;;;;;5037666;28;20455;-78
2021/06/15 12:26:27;;;;;;;6.90;5.93;;;22.80;99.90;;;;;;5049414;28;20410;-77
2021/06/15 12:28:59;;;;;;;11.13;6.47;;;23.00;99.90;;;;;;5048892;28;20416;-79
2021/06/15 12:31:36;;;;;;;15.70;6.30;;;22.80;99.90;;;;;;5035003;28;20427;-79
2021/06/15 12:34:04;;;;;;;7.33;5.83;;;23.30;99.90;;;;;;5035510;28;20447;-78
2021/06/15 12:36:32;;;;;;;7.00;6.30;;;23.60;99.90;;;;;;5036895;28;20408;-79
2021/06/15 12:39:13;;;;;;;10.23;7.23;;;23.90;99.90;;;;;;5036660;28;20408;-79
2021/06/15 12:41:47;;;;;;;8.70;6.47;;;23.80;99.90;;;;;;5036266;28;20460;-79
2021/06/15 12:44:13;;;;;;;10.27;6.57;;;23.30;99.90;;;;;;5037479;28;20718;-79
2021/06/15 12:46:40;;;;;;;11.80;6.90;;;23.20;99.90;;;;;;5035911;28;20408;-78
2021/06/15 12:49:14;;;;;;;9.17;6.30;;;23.20;99.90;;;;;;5034872;28;20184;-78
2021/06/15 12:51:54;;;;;;;9.33;7.00;;;23.50;99.90;;;;;;5036986;28;20412;-79
2021/06/15 12:54:21;;;;;;;7.63;6.67;;;23.30;99.90;;;;;;5038322;28;20463;-79
2021/06/15 12:56:54;;;;;;;8.13;6.30;;;23.10;99.90;;;;;;5037989;28;20492;-79
2021/06/15 12:59:19;;;;;;;7.83;6.70;;;22.90;99.90;;;;;;5037843;28;20477;-79
2021/06/15 13:01:45;;;;;;;7.40;5.33;;;22.90;99.90;;;;;;5035277;28;20451;-78
2021/06/15 13:04:22;;;;;;;6.53;5.83;;;22.90;99.90;;;;;;5037639;28;20188;-79